Time;durP1;ratioP1;P1;durP2;ratioP2;P2;SDS_P1;SDS_P2;PMS_P1;PMS_P2;Temp;Humidity;BMP_temperature;BMP_pressure;BME280_temperature;BME280_humidity;BME280_pressure;Samples;Min_cycle;Max_cycle;Signal;HPM_P1;HPM_P2
2023/11/10 00:02:29;;;;;;;;;;;6.50;99.90;;;;;;6627212;88;20067;-77
2023/11/10 00:12:30;;;;;;;;;;;6.60;99.90;;;;;;6666320;88;20065;-76
2023/11/10 00:22:31;;;;;;;;;;;6.40;99.90;;;;;;6638191;88;20103;-76
2023/11/10 00:32:33;;;;;;;;;;;5.90;99.90;;;;;;6641315;88;20063;-76
2023/11/10 00:42:33;;;;;;;;;;;5.90;99.90;;;;;;6629718;88;20063;-75
2023/11/10 00:52:34;;;;;;;;;;;5.80;99.90;;;;;;6639875;88;20156;-76
2023/11/10 01:02:34;;;;;;;;;;;5.70;99.90;;;;;;6652688;88;20062;-76
2023/11/10 01:12:34;;;;;;;;;;;6.00;99.90;;;;;;6643014;88;20064;-77
2023/11/10 01:22:36;;;;;;;;;;;5.80;99.90;;;;;;6637372;88;20071;-76
2023/11/10 01:32:37;;;;;;;;;;;6.20;99.90;;;;;;6638569;88;20632;-76
2023/11/10 01:42:40;;;;;;;;;;;6.00;99.90;;;;;;6635752;88;20064;-76
2023/11/10 01:52:41;;;;;;;;;;;5.70;99.90;;;;;;6646069;88;20631;-76
2023/11/10 02:02:42;;;;;;;;;;;5.50;99.90;;;;;;6652264;88;20064;-77
2023/11/10 02:13:08;;;;;;;;;;;5.70;99.90;;;;;;6635034;88;20058;-76
2023/11/10 02:23:09;;;;;;;;;;;5.60;99.90;;;;;;6650731;88;20135;-77
2023/11/10 02:33:09;;;;;;;;;;;5.50;99.90;;;;;;6635937;88;20222;-77
2023/11/10 02:43:10;;;;;;;;;;;5.50;99.90;;;;;;6644036;88;20081;-76
2023/11/10 02:53:11;;;;;;;;;;;5.70;99.90;;;;;;6645660;88;20167;-75
2023/11/10 03:13:15;;;;;;;;;;;6.60;99.90;;;;;;6612134;89;20121;-79
2023/11/10 03:23:15;;;;;;;;;;;6.80;99.90;;;;;;6619715;89;20109;-79
2023/11/10 03:33:16;;;;;;;;;;;6.80;99.90;;;;;;6613982;89;20081;-80
2023/11/10 03:43:17;;;;;;;;;;;7.00;99.90;;;;;;6621006;89;20055;-80
2023/11/10 03:53:17;;;;;;;;;;;6.80;99.90;;;;;;6619947;89;20063;-80
2023/11/10 04:03:18;;;;;;;;;;;6.80;99.90;;;;;;6624248;89;20062;-80
2023/11/10 04:13:18;;;;;;;;;;;6.90;99.90;;;;;;6625068;89;20179;-79
2023/11/10 04:23:19;;;;;;;;;;;7.20;99.90;;;;;;6611000;89;20059;-79
2023/11/10 04:33:20;;;;;;;;;;;7.10;99.90;;;;;;6613202;89;20167;-81
2023/11/10 04:43:20;;;;;;;;;;;6.90;99.90;;;;;;6624123;89;20082;-80
2023/11/10 04:53:21;;;;;;;;;;;6.60;99.90;;;;;;6630718;89;20148;-81
2023/11/10 05:03:24;;;;;;;;;;;6.30;99.90;;;;;;6607896;90;20059;-80
2023/11/10 05:13:24;;;;;;;;;;;6.30;99.90;;;;;;6608392;90;20164;-80
2023/11/10 05:23:25;;;;;;;;;;;6.40;99.90;;;;;;6607538;89;20447;-80
2023/11/10 05:33:25;;;;;;;;;;;6.70;99.90;;;;;;6623328;89;20106;-80
2023/11/10 05:43:26;;;;;;;;;;;6.70;99.90;;;;;;6629243;89;20091;-80
2023/11/10 05:53:26;;;;;;;;;;;6.80;99.90;;;;;;6609738;89;20491;-80
2023/11/10 06:03:27;;;;;;;;;;;6.80;99.90;;;;;;6606454;89;20092;-80
2023/11/10 06:13:27;;;;;;;;;;;6.80;99.90;;;;;;6619025;89;20086;-80
2023/11/10 06:23:28;;;;;;;;;;;7.10;99.90;;;;;;6624709;89;20136;-80
2023/11/10 06:33:28;;;;;;;;;;;7.30;99.90;;;;;;6611662;89;20124;-79
2023/11/10 06:43:29;;;;;;;;;;;7.40;99.90;;;;;;6615129;89;20135;-79
2023/11/10 06:53:29;;;;;;;;;;;7.20;99.90;;;;;;6607973;89;20084;-78
2023/11/10 07:03:30;;;;;;;;;;;7.10;99.90;;;;;;6617789;89;20582;-78
2023/11/10 07:13:30;;;;;;;;;;;7.30;99.90;;;;;;6621286;89;20091;-78
2023/11/10 07:23:31;;;;;;;;;;;7.30;99.90;;;;;;6614744;89;20567;-80
2023/11/10 07:33:31;;;;;;;;;;;7.50;99.90;;;;;;6624048;89;20054;-79
2023/11/10 07:43:32;;;;;;;;;;;8.00;99.90;;;;;;6619123;88;20519;-78
2023/11/10 07:53:32;;;;;;;;;;;7.90;99.90;;;;;;6618346;89;20092;-78
2023/11/10 08:03:33;;;;;;;;;;;8.10;99.90;;;;;;6626378;89;20133;-78
2023/11/10 08:13:37;;;;;;;;;;;8.20;99.90;;;;;;6619101;89;20063;-78
2023/11/10 08:23:37;;;;;;;;;;;8.20;99.90;;;;;;6620709;88;20044;-78
2023/11/10 08:33:38;;;;;;;;;;;8.50;99.90;;;;;;6611431;89;20088;-78
2023/11/10 08:43:40;;;;;;;;;;;8.70;99.90;;;;;;6623921;89;20062;-78
2023/11/10 08:53:44;;;;;;;;;;;9.10;99.90;;;;;;6606819;89;20566;-78
2023/11/10 09:03:45;;;;;;;;;;;9.30;99.90;;;;;;6623644;88;20075;-79
2023/11/10 09:13:45;;;;;;;;;;;9.70;99.90;;;;;;6627275;89;20064;-80
2023/11/10 09:23:46;;;;;;;;;;;10.30;99.90;;;;;;6621688;89;20141;-79
2023/11/10 09:33:46;;;;;;;;;;;10.80;99.90;;;;;;6614289;89;20165;-79
2023/11/10 09:43:48;;;;;;;;;;;10.90;99.90;;;;;;6623670;89;20096;-79
2023/11/10 09:53:49;;;;;;;;;;;10.40;99.90;;;;;;6614467;89;20164;-78
2023/11/10 10:03:49;;;;;;;;;;;10.60;99.90;;;;;;6623337;89;21302;-79
2023/11/10 10:13:50;;;;;;;;;;;10.40;99.90;;;;;;6613025;89;20068;-79
2023/11/10 10:23:50;;;;;;;;;;;10.20;99.90;;;;;;6617096;89;20199;-79
2023/11/10 10:33:51;;;;;;;;;;;10.60;99.90;;;;;;6630219;88;20071;-78
2023/11/10 10:43:52;;;;;;;;;;;10.70;99.90;;;;;;6623983;88;20198;-79
2023/11/10 10:53:52;;;;;;;;;;;10.70;99.90;;;;;;6619673;88;20155;-78
2023/11/10 11:04:07;;;;;;;;;;;10.40;99.90;;;;;;6621087;89;20156;-78
2023/11/10 11:14:25;;;;;;;;;;;10.20;99.90;;;;;;6620388;89;20049;-79
2023/11/10 11:24:27;;;;;;;;;;;10.40;99.90;;;;;;6632368;89;20173;-78
2023/11/10 11:34:28;;;;;;;;;;;10.60;99.90;;;;;;6620358;89;20070;-78
2023/11/10 11:44:34;;;;;;;;;;;10.50;99.90;;;;;;6613496;89;20118;-79
2023/11/10 11:54:35;;;;;;;;;;;10.50;99.90;;;;;;6617521;88;20620;-79
2023/11/10 12:04:35;;;;;;;;;;;10.40;99.90;;;;;;6615126;89;20091;-80
2023/11/10 12:14:36;;;;;;;;;;;10.50;99.90;;;;;;6621451;89;20197;-80
2023/11/10 12:24:37;;;;;;;;;;;10.40;99.90;;;;;;6622747;89;20569;-80
2023/11/10 12:34:38;;;;;;;;;;;10.70;99.90;;;;;;6622042;89;20514;-78
2023/11/10 12:44:39;;;;;;;;;;;10.90;99.90;;;;;;6626777;89;20060;-78
2023/11/10 12:54:43;;;;;;;;;;;10.80;99.90;;;;;;6622392;88;20055;-78
2023/11/10 13:04:47;;;;;;;;;;;10.80;99.90;;;;;;6619964;89;20562;-78
2023/11/10 13:14:48;;;;;;;;;;;10.60;99.90;;;;;;6624966;89;20071;-78
2023/11/10 13:24:50;;;;;;;;;;;10.50;99.90;;;;;;6628478;88;20575;-78
2023/11/10 13:34:52;;;;;;;;;;;10.50;99.90;;;;;;6622935;88;20113;-78
2023/11/10 13:44:54;;;;;;;;;;;10.40;99.90;;;;;;6635335;89;20069;-80
2023/11/10 13:54:55;;;;;;;;;;;10.70;99.90;;;;;;6622731;89;20089;-80
2023/11/10 14:04:55;;;;;;;;;;;10.90;99.90;;;;;;6625346;89;20091;-78
2023/11/10 14:14:56;;;;;;;;;;;11.40;99.90;;;;;;6623037;89;20170;-79
2023/11/10 14:24:57;;;;;;;;;;;11.80;99.90;;;;;;6617813;89;20864;-77
2023/11/10 14:34:57;;;;;;;;;;;11.40;99.90;;;;;;6628431;89;20084;-79
2023/11/10 14:45:00;;;;;;;;;;;10.80;99.90;;;;;;6633798;89;20144;-78
2023/11/10 14:55:00;;;;;;;;;;;10.90;99.90;;;;;;6627045;89;20085;-78
2023/11/10 15:15:07;;;;;;;;;;;10.40;99.90;;;;;;6646739;89;20077;-79
2023/11/10 15:25:11;;;;;;;;;;;10.50;99.90;;;;;;6651225;88;20042;-77
2023/11/10 15:35:11;;;;;;;;;;;10.30;99.90;;;;;;6662372;89;20050;-81
2023/11/10 15:45:12;;;;;;;;;;;10.10;99.90;;;;;;6649026;89;20186;-80
2023/11/10 15:55:13;;;;;;;;;;;10.00;99.90;;;;;;6658039;89;20039;-80
2023/11/10 16:05:14;;;;;;;;;;;9.90;99.90;;;;;;6643722;89;20088;-80
2023/11/10 16:15:15;;;;;;;;;;;9.80;99.90;;;;;;6644098;88;20045;-79
2023/11/10 16:25:15;;;;;;;;;;;9.70;99.90;;;;;;6642567;88;20112;-81
2023/11/10 16:35:17;;;;;;;;;;;9.50;99.90;;;;;;6639417;89;20164;-80
2023/11/10 16:45:17;;;;;;;;;;;9.50;99.90;;;;;;6643610;89;20104;-80
2023/11/10 16:55:18;;;;;;;;;;;9.30;99.90;;;;;;6645301;89;20085;-80
2023/11/10 17:05:22;;;;;;;;;;;9.30;99.90;;;;;;6644682;88;20572;-80
2023/11/10 17:15:23;;;;;;;;;;;9.20;99.90;;;;;;6644779;88;20076;-80
2023/11/10 17:25:23;;;;;;;;;;;9.10;99.90;;;;;;6642151;88;20104;-81
2023/11/10 17:35:24;;;;;;;;;;;9.00;99.90;;;;;;6641325;89;20223;-79
2023/11/10 17:45:24;;;;;;;;;;;8.90;99.90;;;;;;6641831;89;20069;-79
2023/11/10 17:55:25;;;;;;;;;;;8.90;99.90;;;;;;6636925;89;20487;-80
2023/11/10 18:05:25;;;;;;;;;;;9.00;99.90;;;;;;6623098;89;20102;-80
2023/11/10 18:15:26;;;;;;;;;;;8.90;99.90;;;;;;6624600;89;20054;-79
2023/11/10 18:25:27;;;;;;;;;;;8.90;99.90;;;;;;6625753;89;20106;-80
2023/11/10 18:35:29;;;;;;;;;;;8.70;99.90;;;;;;6638101;89;20037;-81
2023/11/10 18:55:32;;;;;;;;;;;8.50;99.90;;;;;;6665201;89;20066;-81
2023/11/10 19:05:33;;;;;;;;;;;8.60;99.90;;;;;;6727837;88;20074;-79
2023/11/10 19:15:34;;;;;;;;;;;8.50;99.90;;;;;;6655997;88;20100;-79
2023/11/10 19:25:34;;;;;;;;;;;8.40;99.90;;;;;;6655596;89;20092;-80
2023/11/10 19:35:36;;;;;;;;;;;8.40;99.90;;;;;;6654101;88;20096;-79
2023/11/10 19:45:36;;;;;;;;;;;8.50;99.90;;;;;;6653327;88;20102;-81
2023/11/10 19:55:38;;;;;;;;;;;8.60;99.90;;;;;;6646614;88;20211;-79
2023/11/10 20:05:38;;;;;;;;;;;8.70;99.90;;;;;;6645038;88;20065;-78
2023/11/10 20:15:39;;;;;;;;;;;8.70;99.90;;;;;;6645969;88;20064;-80
2023/11/10 20:25:39;;;;;;;;;;;8.60;99.90;;;;;;6646205;88;20211;-81
2023/11/10 20:35:40;;;;;;;;;;;8.60;99.90;;;;;;6654812;88;20118;-80
2023/11/10 20:45:40;;;;;;;;;;;8.50;99.90;;;;;;6646566;88;20062;-80
2023/11/10 20:55:41;;;;;;;;;;;8.40;99.90;;;;;;6633355;88;20441;-81
2023/11/10 21:05:46;;;;;;;;;;;8.40;99.90;;;;;;6638951;79;20180;-77
2023/11/10 21:15:47;;;;;;;;;;;8.30;99.90;;;;;;6623123;88;20195;-78
2023/11/10 21:25:48;;;;;;;;;;;8.40;99.90;;;;;;6619028;88;20415;-78
2023/11/10 21:35:48;;;;;;;;;;;8.30;99.90;;;;;;6623306;88;20206;-77
2023/11/10 21:45:49;;;;;;;;;;;8.30;99.90;;;;;;6615654;88;20075;-77
2023/11/10 21:55:49;;;;;;;;;;;8.40;99.90;;;;;;6641948;88;20178;-78
2023/11/10 22:05:51;;;;;;;;;;;8.40;99.90;;;;;;6627881;88;20572;-78
2023/11/10 22:15:51;;;;;;;;;;;8.40;99.90;;;;;;6623258;88;20055;-78
2023/11/10 22:25:52;;;;;;;;;;;8.40;99.90;;;;;;6631651;88;20066;-78
2023/11/10 22:35:52;;;;;;;;;;;8.40;99.90;;;;;;6638037;88;20069;-77
2023/11/10 22:45:53;;;;;;;;;;;8.40;99.90;;;;;;6633888;88;20678;-77
2023/11/10 22:55:53;;;;;;;;;;;8.20;99.90;;;;;;6634842;88;20135;-77
2023/11/10 23:05:54;;;;;;;;;;;8.10;99.90;;;;;;6636609;88;20539;-77
2023/11/10 23:15:54;;;;;;;;;;;7.60;99.90;;;;;;6628708;88;20094;-77
2023/11/10 23:25:55;;;;;;;;;;;6.90;99.90;;;;;;6632851;88;20142;-78
2023/11/10 23:35:57;;;;;;;;;;;6.80;99.90;;;;;;6642207;88;20517;-78
2023/11/10 23:45:58;;;;;;;;;;;6.70;99.90;;;;;;6641523;88;20074;-77
2023/11/10 23:55:58;;;;;;;;;;;6.70;99.90;;;;;;6639540;88;20171;-77
